Time,TemperatureF,DewpointF,PressureIn,WindDirection,WindDirectionDegrees,WindSpeedMPH,WindSpeedGustMPH,Humidity,HourlyPrecipIn,Conditions,Clouds,dailyrainin,SolarRadiationWatts/m^2,SoftwareType,DateUTC
2013-03-24 00:02:00,32.0,30.0,-100.00,South,182,0.0,0.0,94,0.00,,,0.07,0.000000,,2013-03-24 07:02:00,
2013-03-24 00:32:00,34.0,31.0,-100.00,SW,223,0.0,0.0,87,0.00,,,0.07,0.000000,,2013-03-24 07:32:00,
2013-03-24 00:42:00,34.0,31.0,-100.00,SW,223,0.0,0.0,87,0.00,,,0.07,0.000000,,2013-03-24 07:42:00,
2013-03-24 00:52:00,34.0,31.0,-100.00,SW,223,0.0,0.0,87,0.00,,,0.07,0.000000,,2013-03-24 07:52:00,
2013-03-24 01:32:00,33.0,29.0,-100.00,SSW,198,0.0,0.0,84,-99.99,,,0.07,0.000000,,2013-03-24 08:32:00,
2013-03-24 01:42:00,33.0,29.0,-100.00,SSW,198,0.0,0.0,84,-99.99,,,0.07,0.000000,,2013-03-24 08:42:00,
2013-03-24 01:52:00,33.0,29.0,-100.00,SSW,198,0.0,0.0,84,-99.99,,,0.07,0.000000,,2013-03-24 08:52:00,
2013-03-24 02:02:00,33.0,29.0,-100.00,SSW,198,0.0,0.0,84,-99.99,,,0.07,0.000000,,2013-03-24 09:02:00,
2013-03-24 02:33:00,32.0,27.0,-100.00,SW,233,0.0,0.0,83,0.00,,,0.07,0.000000,,2013-03-24 09:33:00,
2013-03-24 02:43:00,32.0,27.0,-100.00,SW,233,0.0,0.0,83,0.00,,,0.07,0.000000,,2013-03-24 09:43:00,
2013-03-24 02:52:00,32.0,27.0,-100.00,SW,233,0.0,0.0,83,0.00,,,0.07,0.000000,,2013-03-24 09:52:00,
2013-03-24 03:02:00,32.0,27.0,-100.00,SW,233,0.0,0.0,83,0.00,,,0.07,0.000000,,2013-03-24 10:02:00,
2013-03-24 03:33:00,33.0,28.0,-100.00,SSW,206,0.0,0.0,83,0.00,,,0.07,0.000000,,2013-03-24 10:33:00,
2013-03-24 04:33:00,34.0,27.0,-100.00,SW,226,0.0,0.0,74,-99.99,,,0.07,0.000000,,2013-03-24 11:33:00,
2013-03-24 05:32:00,34.0,25.0,-100.00,SW,233,0.0,0.0,70,-99.99,,,0.07,0.000000,,2013-03-24 12:32:00,
2013-03-24 06:32:00,33.0,25.0,-100.00,WSW,253,0.0,0.0,73,-99.99,,,0.07,0.000000,,2013-03-24 13:32:00,
2013-03-24 07:33:00,33.0,26.0,-100.00,West,260,0.0,0.0,74,0.00,,,0.07,7.000000,,2013-03-24 14:33:00,
2013-03-24 08:33:00,38.0,27.0,-100.00,WSW,255,0.0,0.0,63,0.00,,,0.07,41.000000,,2013-03-24 15:33:00,
2013-03-24 09:33:00,39.0,25.0,-100.00,WSW,255,0.0,0.0,57,-99.99,,,0.07,161.000000,,2013-03-24 16:33:00,
2013-03-24 10:33:00,41.0,23.0,-100.00,West,266,0.0,0.0,49,-99.99,,,0.07,364.000000,,2013-03-24 17:33:00,
2013-03-24 11:33:00,46.0,25.0,-100.00,West,260,0.0,0.0,43,-99.99,,,0.07,502.000000,,2013-03-24 18:33:00,
2013-03-24 12:32:00,46.0,24.0,-100.00,WSW,244,0.0,0.0,42,-99.99,,,0.07,953.000000,,2013-03-24 19:32:00,
2013-03-24 13:32:00,44.0,25.0,-100.00,West,263,0.0,0.0,47,0.00,,,0.07,285.000000,,2013-03-24 20:32:00,
2013-03-24 13:43:00,44.0,25.0,-100.00,West,263,0.0,0.0,47,0.00,,,0.07,285.000000,,2013-03-24 20:43:00,
2013-03-24 13:53:00,44.0,25.0,-100.00,West,263,0.0,0.0,47,0.00,,,0.07,285.000000,,2013-03-24 20:53:00,
2013-03-24 14:33:00,42.0,27.0,-100.00,SW,234,0.0,0.0,56,0.00,,,0.05,505.000000,,2013-03-24 21:33:00,
2013-03-24 14:43:00,42.0,27.0,-100.00,SW,234,0.0,0.0,56,0.00,,,0.05,505.000000,,2013-03-24 21:43:00,
2013-03-24 14:53:00,42.0,27.0,-100.00,SW,234,0.0,0.0,56,0.00,,,0.05,505.000000,,2013-03-24 21:53:00,
2013-03-24 15:02:00,42.0,27.0,-100.00,SW,234,0.0,0.0,56,0.00,,,0.05,505.000000,,2013-03-24 22:02:00,
2013-03-24 15:33:00,44.0,28.0,-100.00,WSW,243,0.0,0.0,54,0.00,,,0.02,375.000000,,2013-03-24 22:33:00,
2013-03-24 15:43:00,44.0,28.0,-100.00,WSW,243,0.0,0.0,54,0.00,,,0.02,375.000000,,2013-03-24 22:43:00,
2013-03-24 15:52:00,44.0,28.0,-100.00,WSW,243,0.0,0.0,54,0.00,,,0.02,375.000000,,2013-03-24 22:52:00,
2013-03-24 16:32:00,44.0,28.0,-100.00,West,274,0.0,0.0,53,0.00,,,0.01,245.000000,,2013-03-24 23:32:00,
2013-03-24 16:42:00,44.0,28.0,-100.00,West,274,0.0,0.0,53,0.00,,,0.01,245.000000,,2013-03-24 23:42:00,
2013-03-24 16:52:00,44.0,28.0,-100.00,West,274,0.0,0.0,53,0.00,,,0.01,245.000000,,2013-03-24 23:52:00,
2013-03-24 17:02:00,44.0,28.0,-100.00,West,274,0.0,0.0,53,0.00,,,0.01,245.000000,,2013-03-25 00:02:00,
2013-03-24 17:33:00,44.0,26.0,-100.00,WSW,238,0.0,0.0,48,0.00,,,0.01,126.000000,,2013-03-25 00:33:00,
2013-03-24 17:43:00,44.0,26.0,-100.00,WSW,238,0.0,0.0,48,0.00,,,0.01,126.000000,,2013-03-25 00:43:00,
2013-03-24 17:52:00,44.0,26.0,-100.00,WSW,238,0.0,0.0,48,0.00,,,0.01,126.000000,,2013-03-25 00:52:00,
2013-03-24 18:32:00,42.0,26.0,-100.00,WSW,242,0.0,0.0,53,0.00,,,0.01,86.000000,,2013-03-25 01:32:00,
2013-03-24 18:42:00,42.0,26.0,-100.00,WSW,242,0.0,0.0,53,0.00,,,0.01,86.000000,,2013-03-25 01:42:00,
2013-03-24 18:52:00,42.0,26.0,-100.00,WSW,242,0.0,0.0,53,0.00,,,0.01,86.000000,,2013-03-25 01:52:00,
2013-03-24 19:02:00,42.0,26.0,-100.00,WSW,242,0.0,0.0,53,0.00,,,0.01,86.000000,,2013-03-25 02:02:00,
2013-03-24 19:33:00,42.0,28.0,-100.00,WSW,248,0.0,0.0,58,0.00,,,0.00,13.000000,,2013-03-25 02:33:00,
2013-03-24 19:43:00,42.0,28.0,-100.00,WSW,248,0.0,0.0,58,0.00,,,0.00,13.000000,,2013-03-25 02:43:00,
2013-03-24 19:52:00,42.0,28.0,-100.00,WSW,248,0.0,0.0,58,0.00,,,0.00,13.000000,,2013-03-25 02:52:00,
2013-03-24 20:02:00,42.0,28.0,-100.00,WSW,248,0.0,0.0,58,0.00,,,0.00,13.000000,,2013-03-25 03:02:00,
2013-03-24 20:34:00,39.0,29.0,-100.00,WSW,257,0.0,0.0,66,-99.99,,,0.00,0.000000,,2013-03-25 03:34:00,
2013-03-24 20:43:00,39.0,29.0,-100.00,WSW,257,0.0,0.0,66,-99.99,,,0.00,0.000000,,2013-03-25 03:43:00,
2013-03-24 20:53:00,39.0,29.0,-100.00,WSW,257,0.0,0.0,66,-99.99,,,0.00,0.000000,,2013-03-25 03:53:00,
2013-03-24 21:02:00,39.0,29.0,-100.00,WSW,257,0.0,0.0,66,-99.99,,,0.00,0.000000,,2013-03-25 04:02:00,
2013-03-24 21:33:00,40.0,30.0,-100.00,WSW,247,0.0,0.0,68,0.00,,,0.00,0.000000,,2013-03-25 04:33:00,
2013-03-24 21:43:00,40.0,30.0,-100.00,WSW,247,0.0,0.0,68,0.00,,,0.00,0.000000,,2013-03-25 04:43:00,
2013-03-24 21:52:00,40.0,30.0,-100.00,WSW,247,0.0,0.0,68,0.00,,,0.00,0.000000,,2013-03-25 04:52:00,
2013-03-24 22:33:00,38.0,29.0,-100.00,WSW,255,0.0,0.0,69,0.00,,,0.00,0.000000,,2013-03-25 05:33:00,
2013-03-24 22:42:00,38.0,29.0,-100.00,WSW,255,0.0,0.0,69,0.00,,,0.00,0.000000,,2013-03-25 05:42:00,
2013-03-24 22:52:00,38.0,29.0,-100.00,WSW,255,0.0,0.0,69,0.00,,,0.00,0.000000,,2013-03-25 05:52:00,
2013-03-24 23:02:00,38.0,29.0,-100.00,WSW,255,0.0,0.0,69,0.00,,,0.00,0.000000,,2013-03-25 06:02:00,
2013-03-24 23:33:00,36.0,30.0,-100.00,SSW,203,0.0,0.0,80,0.00,,,0.00,0.000000,,2013-03-25 06:33:00,
2013-03-24 23:42:00,36.0,30.0,-100.00,SSW,203,0.0,0.0,80,0.00,,,0.00,0.000000,,2013-03-25 06:42:00,
2013-03-24 23:52:00,36.0,30.0,-100.00,SSW,203,0.0,0.0,80,0.00,,,0.00,0.000000,,2013-03-25 06:52:00,